Time;durP1;ratioP1;P1;durP2;ratioP2;P2;SDS_P1;SDS_P2;PMS_P1;PMS_P2;Temp;Humidity;BMP_temperature;BMP_pressure;BME280_temperature;BME280_humidity;BME280_pressure;Samples;Min_cycle;Max_cycle;Signal;HPM_P1;HPM_P2
2021/12/11 00:02:00;;;;;;;112.50;51.50;;;;;;;-3.29;86.93;99423.05;1732787;80;21485;-72
2021/12/11 00:04:31;;;;;;;110.32;47.00;;;;;;;-3.30;86.92;99422.67;1753291;80;21541;-72
2021/12/11 00:06:58;;;;;;;104.83;44.15;;;;;;;-3.32;86.92;99427.17;1731121;81;20997;-72
2021/12/11 00:09:28;;;;;;;100.82;43.52;;;;;;;-3.31;86.93;99434.06;1721841;82;21036;-72
2021/12/11 00:11:59;;;;;;;105.05;44.40;;;;;;;-3.31;86.93;99432.29;1746000;80;21211;-72
2021/12/11 00:14:28;;;;;;;100.85;43.08;;;;;;;-3.30;86.92;99431.80;1745570;80;20996;-73
2021/12/11 00:16:54;;;;;;;95.15;44.40;;;;;;;-3.31;86.93;99436.20;1749449;81;21547;-72
2021/12/11 00:19:23;;;;;;;108.57;43.95;;;;;;;-3.33;86.92;99433.31;1751332;81;21469;-72
2021/12/11 00:21:49;;;;;;;103.22;43.23;;;;;;;-3.34;86.93;99436.39;1739745;81;21035;-72
2021/12/11 00:24:26;;;;;;;102.17;41.53;;;;;;;-3.35;86.93;99436.05;1732473;82;22235;-72
2021/12/11 00:27:04;;;;;;;103.35;42.35;;;;;;;-3.36;86.94;99437.44;1733332;82;21016;-72
2021/12/11 00:29:31;;;;;;;97.92;42.95;;;;;;;-3.37;86.94;99437.06;1724405;83;21550;-72
2021/12/11 00:32:08;;;;;;;106.12;46.48;;;;;;;-3.41;86.93;99441.66;1736441;82;21718;-72
2021/12/11 00:34:37;;;;;;;97.85;43.15;;;;;;;-3.44;86.91;99443.64;1736071;81;21007;-72
2021/12/11 00:37:06;;;;;;;107.30;44.73;;;;;;;-3.45;86.94;99448.51;1744209;81;21149;-72
2021/12/11 00:39:37;;;;;;;113.43;48.97;;;;;;;-3.47;86.93;99451.20;1744436;81;21071;-72
2021/12/11 00:42:01;;;;;;;122.60;49.67;;;;;;;-3.49;86.92;99450.95;1742377;81;21218;-72
2021/12/11 00:44:45;;;;;;;100.87;43.28;;;;;;;-3.53;86.94;99451.64;1717622;81;21152;-72
2021/12/11 00:47:24;;;;;;;87.90;40.92;;;;;;;-3.56;86.93;99452.69;1739379;81;21005;-72
2021/12/11 00:49:55;;;;;;;123.90;49.83;;;;;;;-3.57;86.93;99457.52;1752904;81;21857;-72
2021/12/11 00:52:40;;;;;;;123.40;49.60;;;;;;;-3.59;86.88;99455.47;1752789;81;21070;-72
2021/12/11 00:55:26;;;;;;;139.77;50.48;;;;;;;-3.59;86.93;99467.20;1738693;81;21111;-72
2021/12/11 00:58:03;;;;;;;117.33;49.70;;;;;;;-3.61;86.92;99470.39;1739067;81;21002;-72
2021/12/11 01:00:35;;;;;;;141.15;53.35;;;;;;;-3.62;86.93;99468.71;1725384;82;21053;-72
2021/12/11 01:03:01;;;;;;;135.12;54.23;;;;;;;-3.63;86.94;99478.79;1705308;82;21229;-72
2021/12/11 01:05:34;;;;;;;112.62;48.33;;;;;;;-3.65;86.92;99482.41;1744450;81;27228;-72
2021/12/11 01:08:00;;;;;;;118.62;48.75;;;;;;;-3.69;86.94;99479.19;1747569;81;21015;-72
2021/12/11 01:10:27;;;;;;;113.50;50.52;;;;;;;-3.70;86.95;99485.35;1749023;81;28168;-72
2021/12/11 01:13:02;;;;;;;108.65;47.70;;;;;;;-3.72;86.94;99487.20;1742360;81;21017;-72
2021/12/11 01:15:44;;;;;;;97.30;44.33;;;;;;;-3.73;86.95;99488.63;1748659;81;21231;-72
2021/12/11 01:20:57;;;;;;;106.03;44.45;;;;;;;-3.77;86.93;99489.30;1749294;81;21078;-72
2021/12/11 01:23:34;;;;;;;116.53;49.05;;;;;;;-3.79;86.93;99484.64;1749972;81;21513;-72
2021/12/11 01:25:44;;;;;;;137.65;53.45;;;;;;;-3.82;86.93;99499.64;1730136;81;21098;-72
2021/12/11 01:28:10;;;;;;;129.42;50.52;;;;;;;-3.87;86.95;99505.14;1745770;81;21694;-72
2021/12/11 01:30:39;;;;;;;117.33;47.78;;;;;;;-3.88;86.95;99510.01;1753320;81;26731;-72
2021/12/11 01:33:07;;;;;;;110.03;46.70;;;;;;;-3.89;86.95;99505.73;1751864;81;20996;-72
2021/12/11 01:35:33;;;;;;;107.50;44.65;;;;;;;-3.91;86.95;99511.98;1731794;80;21186;-72
2021/12/11 01:38:05;;;;;;;90.15;40.08;;;;;;;-3.95;86.98;99516.55;1724602;81;21105;-72
2021/12/11 01:40:31;;;;;;;101.22;41.75;;;;;;;-4.00;87.00;99522.52;1726986;82;21231;-72
2021/12/11 01:43:03;;;;;;;90.87;42.05;;;;;;;-4.05;87.03;99525.41;1753872;81;21002;-72
2021/12/11 01:45:30;;;;;;;93.50;41.68;;;;;;;-4.11;87.05;99522.38;1728854;81;21009;-72
2021/12/11 01:47:56;;;;;;;101.65;43.35;;;;;;;-4.17;87.05;99528.83;1755795;81;21038;-72
2021/12/11 01:50:36;;;;;;;93.22;39.88;;;;;;;-4.24;87.06;99528.01;1731088;81;21498;-72
2021/12/11 01:53:07;;;;;;;154.78;68.07;;;;;;;-4.28;87.03;99536.48;1745883;81;21495;-72
2021/12/11 01:55:44;;;;;;;118.97;49.20;;;;;;;-4.37;87.01;99542.74;1734451;81;21138;-72
2021/12/11 01:58:14;;;;;;;100.60;42.75;;;;;;;-4.42;86.98;99548.69;1737098;81;21542;-72
2021/12/11 02:00:59;;;;;;;86.12;38.78;;;;;;;-4.42;86.96;99555.19;1726108;82;21034;-72
2021/12/11 02:03:28;;;;;;;84.45;37.85;;;;;;;-4.41;86.95;99551.67;1739894;81;21086;-72
2021/12/11 02:05:54;;;;;;;81.60;36.60;;;;;;;-4.39;86.93;99555.00;1745533;81;21209;-72
2021/12/11 02:08:24;;;;;;;85.53;38.00;;;;;;;-4.31;86.91;99557.95;1744992;80;21700;-72
2021/12/11 02:11:02;;;;;;;77.10;38.63;;;;;;;-4.26;86.88;99558.05;1722180;81;21564;-72
2021/12/11 02:13:40;;;;;;;92.35;41.10;;;;;;;-4.23;86.87;99562.22;1735192;80;21102;-73
2021/12/11 02:16:04;;;;;;;92.57;38.55;;;;;;;-4.26;86.86;99563.27;1760062;80;20982;-72
2021/12/11 02:18:35;;;;;;;85.30;37.05;;;;;;;-4.28;86.87;99573.38;1769912;80;21219;-72
2021/12/11 02:21:17;;;;;;;132.82;53.23;;;;;;;-4.27;86.86;99577.66;1781588;80;21049;-71
2021/12/11 02:23:43;;;;;;;354.48;132.05;;;;;;;-4.32;86.85;99578.40;1765035;80;20994;-72
2021/12/11 02:26:14;;;;;;;234.37;88.80;;;;;;;-4.38;86.89;99582.70;1767439;80;20973;-72
2021/12/11 02:28:50;;;;;;;241.30;90.17;;;;;;;-4.41;86.93;99577.69;1789467;80;20990;-72
2021/12/11 02:31:28;;;;;;;326.65;125.55;;;;;;;-4.45;86.93;99589.21;1781605;80;21561;-72
2021/12/11 02:34:07;;;;;;;250.90;99.75;;;;;;;-4.45;86.94;99589.21;1737310;81;21474;-72
2021/12/11 02:36:33;;;;;;;142.25;57.23;;;;;;;-4.47;86.95;99593.69;1782499;80;21034;-72
2021/12/11 02:39:19;;;;;;;99.50;45.43;;;;;;;-4.45;86.96;99587.45;1781900;80;21015;-72
2021/12/11 02:42:12;;;;;;;145.05;59.98;;;;;;;-4.42;86.96;99594.22;1769851;80;20970;-72
2021/12/11 02:44:48;;;;;;;98.97;43.35;;;;;;;-4.40;86.97;99597.58;1772659;80;21132;-71
2021/12/11 02:47:30;;;;;;;97.57;39.35;;;;;;;-4.34;86.95;99604.53;1734294;81;21054;-72
2021/12/11 02:50:25;;;;;;;92.85;41.85;;;;;;;-4.28;86.94;99602.84;1712118;83;21039;-72
2021/12/11 02:53:11;;;;;;;94.00;40.73;;;;;;;-4.21;86.94;99607.19;1695390;83;21045;-72
2021/12/11 02:55:45;;;;;;;83.47;39.70;;;;;;;-4.13;86.93;99612.75;1699560;83;21494;-72
2021/12/11 02:58:21;;;;;;;77.37;35.15;;;;;;;-4.04;86.89;99622.11;1701609;83;21916;-71
2021/12/11 03:00:53;;;;;;;85.35;38.13;;;;;;;-3.94;86.87;99623.66;1700116;83;21069;-71
2021/12/11 03:03:31;;;;;;;80.38;39.95;;;;;;;-3.84;86.86;99629.97;1698305;83;21243;-72
2021/12/11 03:06:14;;;;;;;84.35;38.45;;;;;;;-3.76;86.86;99633.36;1701541;83;21533;-72
2021/12/11 03:08:25;;;;;;;87.35;39.95;;;;;;;-3.71;86.86;99643.87;1695382;83;21001;-72
2021/12/11 03:10:55;;;;;;;82.22;38.55;;;;;;;-3.66;86.85;99648.30;1732469;81;21642;-72
2021/12/11 03:13:22;;;;;;;87.15;37.28;;;;;;;-3.59;86.85;99652.67;1722449;82;21049;-72
2021/12/11 03:15:49;;;;;;;83.58;37.98;;;;;;;-3.57;86.85;99658.14;1751787;81;21124;-72
2021/12/11 03:18:15;;;;;;;84.35;38.70;;;;;;;-3.52;86.84;99657.02;1752534;81;21103;-72
2021/12/11 03:20:41;;;;;;;89.65;39.55;;;;;;;-3.50;86.83;99655.12;1751348;81;27099;-72
2021/12/11 03:23:08;;;;;;;91.82;37.75;;;;;;;-3.46;86.84;99668.33;1751739;81;21881;-72
2021/12/11 03:25:34;;;;;;;80.65;36.95;;;;;;;-3.46;86.83;99659.21;1760376;81;21546;-72
2021/12/11 03:28:00;;;;;;;79.50;36.85;;;;;;;-3.42;86.84;99664.59;1750176;81;21006;-72
2021/12/11 03:30:33;;;;;;;85.47;38.92;;;;;;;-3.39;86.85;99664.39;1747218;81;21120;-72
2021/12/11 03:33:04;;;;;;;93.03;39.15;;;;;;;-3.37;86.84;99666.41;1748573;81;20998;-72
2021/12/11 03:35:31;;;;;;;83.17;39.23;;;;;;;-3.34;86.86;99674.06;1755736;81;21129;-72
2021/12/11 03:37:57;;;;;;;83.62;39.33;;;;;;;-3.33;86.85;99676.55;1746856;81;21142;-72
2021/12/11 03:40:23;;;;;;;192.15;85.07;;;;;;;-3.30;86.84;99684.62;1702231;83;21064;-72
2021/12/11 03:42:49;;;;;;;239.65;107.07;;;;;;;-3.27;86.86;99688.36;1701729;83;28765;-72
2021/12/11 03:45:23;;;;;;;182.60;77.50;;;;;;;-3.25;86.85;99691.23;1728085;82;21136;-72
2021/12/11 03:47:55;;;;;;;129.75;57.03;;;;;;;-3.20;86.87;99693.05;1713984;83;21181;-72
2021/12/11 03:50:21;;;;;;;94.28;42.60;;;;;;;-3.14;86.88;99695.73;1722825;81;21005;-72
2021/12/11 03:52:48;;;;;;;94.75;40.90;;;;;;;-3.08;86.87;99702.69;1754093;81;21012;-72
2021/12/11 03:55:19;;;;;;;88.42;40.90;;;;;;;-3.02;86.88;99704.04;1751536;81;21493;-72
2021/12/11 03:57:45;;;;;;;102.92;45.90;;;;;;;-2.96;86.87;99707.56;1745949;80;21656;-72
2021/12/11 04:00:16;;;;;;;96.12;41.15;;;;;;;-2.96;86.88;99715.39;1754935;81;21060;-72
2021/12/11 04:02:44;;;;;;;101.72;42.70;;;;;;;-2.94;86.90;99721.33;1746688;81;21583;-72
2021/12/11 04:05:10;;;;;;;100.12;41.95;;;;;;;-2.94;86.90;99721.79;1750566;80;21512;-72
2021/12/11 04:07:41;;;;;;;87.80;40.15;;;;;;;-2.93;86.89;99720.86;1757546;81;28189;-72
2021/12/11 04:10:09;;;;;;;94.37;42.13;;;;;;;-2.92;86.90;99725.95;1755875;80;21515;-72
2021/12/11 04:12:35;;;;;;;96.30;43.05;;;;;;;-2.91;86.90;99729.41;1752988;80;22030;-72
2021/12/11 04:15:01;;;;;;;92.37;41.35;;;;;;;-2.92;86.88;99731.17;1751984;80;26700;-72
2021/12/11 04:17:27;;;;;;;92.08;42.43;;;;;;;-2.87;86.88;99734.33;1748930;80;25795;-73
2021/12/11 04:19:56;;;;;;;93.80;40.40;;;;;;;-2.83;86.88;99734.50;1743776;80;21514;-73
2021/12/11 04:22:24;;;;;;;67.85;28.77;;;;;;;-2.78;86.89;99740.72;1740939;81;21016;-72
2021/12/11 04:24:50;;;;;;;86.12;39.00;;;;;;;-2.76;86.90;99744.89;1746966;81;21202;-72
2021/12/11 04:27:18;;;;;;;87.65;37.45;;;;;;;-2.74;86.91;99749.53;1745045;80;21026;-72
2021/12/11 04:29:47;;;;;;;91.32;41.63;;;;;;;-2.73;86.91;99760.34;1729777;81;21055;-72
2021/12/11 04:32:12;;;;;;;90.50;42.27;;;;;;;-2.76;86.89;99762.31;1724018;82;21091;-72
2021/12/11 04:34:38;;;;;;;93.78;39.85;;;;;;;-2.74;86.91;99763.88;1740026;81;26656;-72
2021/12/11 04:37:14;;;;;;;85.07;41.73;;;;;;;-2.68;86.90;99772.63;1746171;81;21134;-72
2021/12/11 04:39:41;;;;;;;108.57;47.58;;;;;;;-2.63;86.86;99766.61;1746416;81;21475;-72
2021/12/11 04:44:40;;;;;;;82.10;38.78;;;;;;;-2.62;86.87;99769.59;1666662;82;21061;-72
2021/12/11 04:47:10;;;;;;;;;;;;;;;-2.65;86.87;99782.02;1766975;80;21033;-72
2021/12/11 04:49:43;;;;;;;91.32;41.83;;;;;;;-2.67;86.87;99783.41;1792891;79;21273;-72
2021/12/11 04:52:11;;;;;;;89.67;43.17;;;;;;;-2.68;86.86;99784.37;1774487;80;21068;-72
2021/12/11 04:54:49;;;;;;;90.65;42.35;;;;;;;-2.64;86.83;99787.11;1761397;81;21060;-72
2021/12/11 05:00:06;;;;;;;84.25;40.15;;;;;;;-2.57;86.83;99793.59;1756365;81;20988;-72
2021/12/11 05:05:12;;;;;;;82.75;41.58;;;;;;;-2.60;86.79;99806.02;1779205;80;21502;-72
2021/12/11 05:07:38;;;;;;;86.35;40.33;;;;;;;-2.60;86.81;99800.33;1788592;80;21089;-72
2021/12/11 05:10:20;;;;;;;86.35;38.83;;;;;;;-2.58;86.82;99805.46;1787995;79;21068;-72
2021/12/11 05:12:47;;;;;;;77.82;37.35;;;;;;;-2.57;86.82;99806.64;1761069;80;21076;-72
2021/12/11 05:15:22;;;;;;;83.05;39.00;;;;;;;-2.57;86.79;99809.75;1784518;80;21091;-72
2021/12/11 05:17:49;;;;;;;84.47;44.13;;;;;;;-2.53;86.77;99809.42;1767416;80;38350;-72
2021/12/11 05:20:17;;;;;;;76.55;36.83;;;;;;;-2.49;86.75;99813.97;1776297;80;21076;-72
2021/12/11 05:22:43;;;;;;;78.40;34.65;;;;;;;-2.50;86.73;99823.23;1776990;79;21316;-72
2021/12/11 05:25:10;;;;;;;80.42;36.68;;;;;;;-2.55;86.74;99816.53;1780964;79;20986;-72
2021/12/11 05:27:36;;;;;;;77.00;36.63;;;;;;;-2.58;86.72;99821.95;1787466;80;21505;-72
2021/12/11 05:30:06;;;;;;;74.50;36.05;;;;;;;-2.58;86.72;99819.34;1770140;79;20998;-73
2021/12/11 05:32:32;;;;;;;75.57;36.10;;;;;;;-2.54;86.71;99819.98;1789525;80;21085;-72
2021/12/11 05:34:58;;;;;;;80.38;37.85;;;;;;;-2.52;86.71;99818.09;1777292;80;21028;-72
2021/12/11 05:37:24;;;;;;;78.07;36.95;;;;;;;-2.48;86.72;99813.51;1771696;80;21097;-73
2021/12/11 05:39:50;;;;;;;75.80;37.98;;;;;;;-2.45;86.72;99821.13;1775111;80;21130;-72
2021/12/11 05:42:16;;;;;;;78.90;36.35;;;;;;;-2.36;86.74;99832.28;1759684;81;21016;-73
2021/12/11 05:44:43;;;;;;;78.80;38.63;;;;;;;-2.33;86.73;99830.77;1746084;81;25891;-72
2021/12/11 05:47:09;;;;;;;74.42;35.73;;;;;;;-2.32;86.74;99832.45;1751268;81;21462;-72
2021/12/11 05:49:35;;;;;;;83.20;36.20;;;;;;;-2.33;86.73;99831.61;1731729;80;21030;-72
2021/12/11 05:52:05;;;;;;;76.30;35.55;;;;;;;-2.28;86.72;99832.12;1752227;81;21588;-73
2021/12/11 05:54:32;;;;;;;80.57;39.40;;;;;;;-2.25;86.70;99833.71;1734806;81;21510;-72
2021/12/11 05:57:02;;;;;;;76.45;35.63;;;;;;;-2.21;86.69;99830.77;1750207;81;21490;-72
2021/12/11 05:59:28;;;;;;;76.33;37.45;;;;;;;-2.17;86.69;99839.23;1731268;81;21018;-72
2021/12/11 06:02:06;;;;;;;77.82;37.83;;;;;;;-2.15;86.68;99845.20;1736822;81;21038;-73
2021/12/11 06:04:33;;;;;;;78.57;37.23;;;;;;;-2.17;86.68;99848.37;1749424;81;21756;-72
2021/12/11 06:07:00;;;;;;;81.67;40.83;;;;;;;-2.19;86.66;99851.56;1760198;81;21503;-73
2021/12/11 06:09:27;;;;;;;86.50;40.10;;;;;;;-2.21;86.66;99853.43;1728270;81;21542;-72
2021/12/11 06:11:57;;;;;;;78.72;37.50;;;;;;;-2.17;86.66;99860.12;1730873;82;21117;-72
2021/12/11 06:14:24;;;;;;;80.03;38.45;;;;;;;-2.12;86.68;99869.34;1723247;82;21030;-72
2021/12/11 06:16:53;;;;;;;81.70;37.78;;;;;;;-2.11;86.65;99867.56;1711271;81;21232;-73
2021/12/11 06:19:21;;;;;;;79.03;38.80;;;;;;;-2.09;86.65;99876.97;1759118;81;21051;-72
2021/12/11 06:21:47;;;;;;;85.12;42.67;;;;;;;-2.07;86.66;99880.77;1756389;81;21074;-72
2021/12/11 06:24:13;;;;;;;81.28;38.83;;;;;;;-2.08;86.64;99884.33;1732979;81;21051;-72
2021/12/11 06:26:39;;;;;;;91.53;39.70;;;;;;;-2.07;86.64;99884.68;1728618;82;21017;-72
2021/12/11 06:29:05;;;;;;;81.10;39.38;;;;;;;-2.06;86.64;99884.59;1732191;82;21220;-72
2021/12/11 06:31:31;;;;;;;76.60;37.75;;;;;;;-2.04;86.64;99894.92;1718383;82;21083;-72
2021/12/11 06:33:57;;;;;;;80.10;37.80;;;;;;;-2.05;86.64;99903.72;1724855;82;21104;-72
2021/12/11 06:36:24;;;;;;;78.62;38.08;;;;;;;-2.07;86.62;99902.97;1773412;80;28486;-72
2021/12/11 06:38:54;;;;;;;74.85;37.90;;;;;;;-2.08;86.61;99907.84;1792401;79;20986;-72
2021/12/11 06:41:25;;;;;;;71.70;35.73;;;;;;;-2.08;86.60;99906.53;1775824;80;21744;-72
2021/12/11 06:43:51;;;;;;;70.80;33.05;;;;;;;-2.02;86.60;99910.03;1782850;79;21485;-72
2021/12/11 06:46:17;;;;;;;75.57;34.13;;;;;;;-2.01;86.59;99918.25;1776625;79;25886;-72
2021/12/11 06:48:43;;;;;;;70.30;33.00;;;;;;;-1.99;86.60;99921.58;1782250;80;20970;-72
2021/12/11 06:51:09;;;;;;;66.67;33.40;;;;;;;-1.96;86.57;99925.76;1776065;80;24722;-72
2021/12/11 06:53:45;;;;;;;79.03;36.08;;;;;;;-1.94;86.55;99940.41;1782024;80;21171;-72
2021/12/11 06:56:13;;;;;;;87.88;44.98;;;;;;;-1.93;86.58;99939.92;1791717;79;21049;-72
2021/12/11 06:58:39;;;;;;;78.37;38.35;;;;;;;-1.92;86.59;99954.20;1791841;80;21502;-72
2021/12/11 07:01:07;;;;;;;76.30;40.88;;;;;;;-1.90;86.58;99953.61;1792052;80;21022;-72
2021/12/11 07:03:33;;;;;;;81.85;46.25;;;;;;;-1.86;86.58;99959.01;1774222;79;21069;-72
2021/12/11 07:05:59;;;;;;;98.85;54.25;;;;;;;-1.82;86.59;99963.09;1753515;80;21850;-72
2021/12/11 07:08:27;;;;;;;96.00;47.80;;;;;;;-1.78;86.60;99964.56;1748341;81;26692;-72
2021/12/11 07:10:53;;;;;;;96.95;50.00;;;;;;;-1.72;86.60;99977.21;1732741;81;21006;-72
2021/12/11 07:13:19;;;;;;;115.00;56.88;;;;;;;-1.69;86.60;99976.19;1750176;81;21054;-72
2021/12/11 07:15:45;;;;;;;108.53;53.00;;;;;;;-1.63;86.62;99979.23;1734324;81;20983;-72
2021/12/11 07:18:11;;;;;;;98.62;49.77;;;;;;;-1.60;86.62;99988.17;1763805;80;21182;-72
2021/12/11 07:20:37;;;;;;;98.15;47.05;;;;;;;-1.56;86.64;99985.72;1751023;81;21227;-73
2021/12/11 07:23:04;;;;;;;96.20;46.50;;;;;;;-1.54;86.63;99995.59;1759082;80;21096;-73
2021/12/11 07:25:54;;;;;;;99.37;46.92;;;;;;;-1.57;86.65;99995.80;1740041;80;21057;-72
2021/12/11 07:28:21;;;;;;;90.20;43.13;;;;;;;-1.58;86.64;100003.27;1746037;81;21009;-73
2021/12/11 07:30:49;;;;;;;112.80;51.00;;;;;;;-1.54;86.67;100011.27;1758380;81;21825;-72
2021/12/11 07:33:15;;;;;;;103.17;48.42;;;;;;;-1.49;86.69;100016.66;1758653;81;21021;-73
2021/12/11 07:35:42;;;;;;;101.38;48.02;;;;;;;-1.46;86.68;100017.77;1760654;81;21046;-72
2021/12/11 07:38:08;;;;;;;82.80;41.40;;;;;;;-1.43;86.69;100027.55;1747883;81;21073;-72
2021/12/11 07:40:42;;;;;;;99.70;47.43;;;;;;;-1.35;86.70;100037.03;1741854;81;20991;-72
2021/12/11 07:43:08;;;;;;;88.97;45.30;;;;;;;-1.29;86.68;100040.99;1724455;81;22013;-72
2021/12/11 07:45:34;;;;;;;85.03;42.75;;;;;;;-1.20;86.69;100041.70;1729755;82;26674;-72
2021/12/11 07:48:00;;;;;;;94.95;46.48;;;;;;;-1.10;86.70;100040.13;1714828;81;21134;-73
2021/12/11 07:50:27;;;;;;;122.28;56.48;;;;;;;-1.02;86.71;100050.87;1729265;81;21822;-72
2021/12/11 07:52:53;;;;;;;118.53;55.25;;;;;;;-0.92;86.69;100048.02;1728490;82;21081;-72
2021/12/11 07:55:19;;;;;;;140.65;67.35;;;;;;;-0.82;86.66;100047.75;1730894;82;21891;-72
2021/12/11 07:57:45;;;;;;;139.55;70.87;;;;;;;-0.84;86.65;100049.61;1729911;81;21014;-72
2021/12/11 08:00:16;;;;;;;141.32;69.80;;;;;;;-0.93;86.67;100057.27;1731272;81;26669;-72
2021/12/11 08:02:41;;;;;;;128.70;64.90;;;;;;;-0.91;86.69;100055.38;1731662;82;21495;-72
2021/12/11 08:05:08;;;;;;;150.75;72.97;;;;;;;-0.91;86.70;100061.45;1743139;81;21027;-72
2021/12/11 08:07:34;;;;;;;156.85;75.65;;;;;;;-0.87;86.68;100062.91;1744314;81;21125;-72
2021/12/11 08:10:00;;;;;;;165.28;79.75;;;;;;;-0.92;86.71;100063.72;1704733;82;21074;-72
2021/12/11 08:12:25;;;;;;;168.00;80.30;;;;;;;-0.99;86.70;100077.33;1735699;81;21022;-72
2021/12/11 08:14:51;;;;;;;155.40;74.65;;;;;;;-1.04;86.68;100086.79;1725139;81;21424;-71
2021/12/11 08:17:18;;;;;;;190.03;90.45;;;;;;;-1.10;86.69;100080.67;1738237;81;20930;-72
2021/12/11 08:19:44;;;;;;;162.37;79.32;;;;;;;-1.12;86.67;100083.84;1734931;81;21090;-72
2021/12/11 08:22:11;;;;;;;169.00;79.30;;;;;;;-1.21;86.67;100084.48;1737291;81;27690;-72
2021/12/11 08:24:38;;;;;;;186.40;83.25;;;;;;;-1.24;86.65;100096.46;1744905;81;21050;-72
2021/12/11 08:27:11;;;;;;;204.55;94.50;;;;;;;-1.26;86.60;100099.63;1737664;81;21073;-72
2021/12/11 08:29:38;;;;;;;200.57;95.15;;;;;;;-1.24;86.59;100103.00;1742869;81;21112;-72
2021/12/11 08:32:06;;;;;;;204.32;97.33;;;;;;;-1.21;86.55;100101.48;1735205;81;21188;-73
2021/12/11 08:34:33;;;;;;;178.07;86.95;;;;;;;-1.21;86.50;100111.48;1717941;81;21077;-73
2021/12/11 08:36:59;;;;;;;194.55;92.12;;;;;;;-1.18;86.47;100112.58;1725551;82;21022;-72
2021/12/11 08:39:26;;;;;;;211.72;97.22;;;;;;;-1.12;86.45;100119.16;1716477;82;21387;-72
2021/12/11 08:41:52;;;;;;;175.87;76.82;;;;;;;-1.08;86.44;100123.25;1724139;82;21117;-72
2021/12/11 08:44:19;;;;;;;190.50;78.72;;;;;;;-1.07;86.41;100132.79;1748038;80;21554;-72
2021/12/11 08:46:50;;;;;;;224.88;93.27;;;;;;;-1.08;86.36;100126.72;1733571;81;21065;-72
2021/12/11 08:49:20;;;;;;;217.80;89.28;;;;;;;-1.07;86.36;100128.86;1711658;82;21036;-72
2021/12/11 08:51:54;;;;;;;168.22;75.00;;;;;;;-1.05;86.34;100134.81;1708718;82;21095;-73
2021/12/11 08:54:22;;;;;;;185.15;79.70;;;;;;;-1.04;86.30;100133.89;1711341;82;21114;-73
2021/12/11 08:56:49;;;;;;;158.25;70.80;;;;;;;-1.01;86.31;100140.22;1730369;82;21997;-73
2021/12/11 08:59:17;;;;;;;138.72;63.92;;;;;;;-0.97;86.28;100140.84;1724766;81;21136;-72
2021/12/11 09:02:06;;;;;;;135.90;63.98;;;;;;;-0.93;86.24;100148.87;1728707;81;21086;-72
2021/12/11 09:04:44;;;;;;;125.00;58.05;;;;;;;-0.91;86.23;100162.20;1725518;81;21169;-72
2021/12/11 09:07:18;;;;;;;120.20;54.30;;;;;;;-0.89;86.22;100169.50;1724760;81;21011;-73
2021/12/11 09:09:56;;;;;;;118.77;54.88;;;;;;;-0.91;86.19;100171.37;1741876;81;21673;-73
2021/12/11 09:12:31;;;;;;;138.47;65.87;;;;;;;-0.95;86.16;100171.20;1737354;81;21053;-72
2021/12/11 09:15:05;;;;;;;115.32;53.80;;;;;;;-0.94;86.16;100184.66;1719786;81;21187;-73
2021/12/11 09:17:39;;;;;;;248.45;111.47;;;;;;;-0.95;86.14;100185.59;1709588;82;21012;-73
2021/12/11 09:20:17;;;;;;;219.05;102.95;;;;;;;-0.95;86.12;100192.14;1756991;80;21041;-73
2021/12/11 09:23:04;;;;;;;231.57;108.37;;;;;;;-0.94;86.09;100192.98;1742335;81;21209;-73
2021/12/11 09:25:42;;;;;;;377.70;166.85;;;;;;;-0.86;86.08;100196.77;1719807;82;21063;-73
2021/12/11 09:28:30;;;;;;;288.95;126.58;;;;;;;-0.78;86.10;100193.19;1730128;82;21513;-73
2021/12/11 09:31:03;;;;;;;238.77;113.50;;;;;;;-0.75;86.07;100198.20;1715263;82;21107;-74
2021/12/11 09:33:34;;;;;;;205.72;95.97;;;;;;;-0.72;86.02;100198.00;1698622;82;21157;-73
2021/12/11 09:36:08;;;;;;;291.25;119.53;;;;;;;-0.71;85.99;100199.69;1707025;82;21198;-73
2021/12/11 09:38:39;;;;;;;333.40;134.00;;;;;;;-0.68;85.98;100198.16;1708229;82;21601;-73
2021/12/11 09:41:24;;;;;;;345.75;146.18;;;;;;;-0.65;85.96;100204.96;1734308;81;21758;-73
2021/12/11 09:44:01;;;;;;;116.93;55.10;;;;;;;-0.60;85.95;100206.81;1714433;82;21088;-73
2021/12/11 09:47:08;;;;;;;89.45;47.65;;;;;;;-0.48;85.92;100207.73;1717585;82;21069;-73
2021/12/11 09:49:43;;;;;;;118.00;63.15;;;;;;;-0.38;85.92;100214.02;1723763;82;21296;-72
2021/12/11 09:52:17;;;;;;;146.45;76.15;;;;;;;-0.34;85.91;100218.11;1720495;82;21573;-72
2021/12/11 09:54:46;;;;;;;188.97;85.45;;;;;;;-0.28;85.90;100219.02;1735838;82;21657;-72
2021/12/11 09:57:17;;;;;;;196.15;85.25;;;;;;;-0.23;85.89;100226.06;1750906;81;21155;-72
2021/12/11 09:59:44;;;;;;;192.20;84.30;;;;;;;-0.17;85.87;100232.19;1751751;81;21546;-73
2021/12/11 10:02:21;;;;;;;125.80;58.25;;;;;;;-0.16;85.83;100232.56;1754879;80;21143;-72
2021/12/11 10:04:58;;;;;;;99.75;49.60;;;;;;;-0.14;85.81;100230.69;1768141;80;22360;-72
2021/12/11 10:07:28;;;;;;;98.22;47.55;;;;;;;-0.05;85.81;100235.28;1749154;81;21048;-73
2021/12/11 10:09:55;;;;;;;97.00;49.38;;;;;;;-0.03;85.78;100235.53;1720916;82;21474;-72
2021/12/11 10:12:35;;;;;;;103.60;49.53;;;;;;;-0.02;85.78;100239.00;1705181;82;21041;-73
2021/12/11 10:15:13;;;;;;;;;;;;;;;-0.01;85.72;100248.55;1743756;81;21874;-72
2021/12/11 10:17:53;;;;;;;112.15;53.90;;;;;;;0.02;85.71;100250.11;1754978;81;20425;-73
2021/12/11 10:20:26;;;;;;;119.72;60.40;;;;;;;0.05;85.68;100259.06;1751121;81;21002;-72
2021/12/11 10:22:55;;;;;;;129.63;68.50;;;;;;;0.08;85.66;100268.02;1743942;81;21494;-73
2021/12/11 10:25:25;;;;;;;118.28;64.03;;;;;;;0.17;85.66;100276.57;1757730;81;21593;-72
2021/12/11 10:27:51;;;;;;;118.93;63.83;;;;;;;0.19;85.62;100279.44;1746575;81;21105;-72
2021/12/11 10:30:22;;;;;;;155.00;66.97;;;;;;;0.17;85.61;100270.86;1741873;81;21755;-72
2021/12/11 10:32:49;;;;;;;142.28;67.82;;;;;;;0.15;85.60;100283.22;1720145;82;21010;-72
2021/12/11 10:35:20;;;;;;;142.45;66.87;;;;;;;0.12;85.58;100282.13;1734576;82;21110;-71
2021/12/11 10:37:46;;;;;;;149.97;69.65;;;;;;;0.16;85.55;100286.22;1737725;81;21440;-72
2021/12/11 10:40:29;;;;;;;176.40;80.77;;;;;;;0.17;85.52;100298.39;1743713;80;21914;-71
2021/12/11 10:43:00;;;;;;;165.15;74.70;;;;;;;0.18;85.49;100298.73;1717435;82;21589;-72
2021/12/11 10:45:27;;;;;;;194.40;78.22;;;;;;;0.17;85.49;100294.45;1716092;82;21063;-72
2021/12/11 10:47:58;;;;;;;200.68;81.32;;;;;;;0.17;85.45;100289.69;1744666;80;21100;-72
2021/12/11 10:50:32;;;;;;;214.42;85.07;;;;;;;0.17;85.42;100295.77;1741826;80;21066;-72
2021/12/11 10:52:58;;;;;;;181.85;76.77;;;;;;;0.17;85.36;100300.17;1745587;80;21154;-72
2021/12/11 10:55:28;;;;;;;183.40;78.10;;;;;;;0.18;85.35;100298.73;1723036;81;21742;-73
2021/12/11 10:57:56;;;;;;;149.38;64.47;;;;;;;0.22;85.33;100305.91;1717466;81;21565;-72
2021/12/11 11:00:33;;;;;;;156.10;67.92;;;;;;;0.24;85.29;100308.82;1718407;82;21054;-72
2021/12/11 11:02:59;;;;;;;162.45;74.22;;;;;;;0.25;85.27;100317.03;1757821;80;21068;-72
2021/12/11 11:05:27;;;;;;;131.80;60.63;;;;;;;0.21;85.22;100315.56;1745464;81;21225;-71
2021/12/11 11:07:53;;;;;;;134.55;58.78;;;;;;;0.17;85.20;100316.74;1759931;80;21074;-71
2021/12/11 11:10:24;;;;;;;173.93;77.20;;;;;;;0.12;85.14;100318.83;1761050;80;20970;-71
2021/12/11 11:12:50;;;;;;;225.80;101.58;;;;;;;0.16;85.08;100324.70;1761494;80;21034;-72
2021/12/11 11:15:18;;;;;;;303.55;131.05;;;;;;;0.18;85.05;100328.05;1758347;80;21517;-71
2021/12/11 11:17:44;;;;;;;265.65;112.03;;;;;;;0.20;85.04;100334.88;1755824;81;21170;-71
2021/12/11 11:20:14;;;;;;;266.02;106.25;;;;;;;0.23;85.04;100329.42;1756581;81;20950;-72
2021/12/11 11:22:41;;;;;;;194.80;82.20;;;;;;;0.25;85.00;100345.03;1748251;81;21657;-72
2021/12/11 11:25:15;;;;;;;130.10;61.00;;;;;;;0.30;85.00;100350.81;1747269;81;21528;-72
2021/12/11 11:27:43;;;;;;;169.57;71.95;;;;;;;0.29;84.96;100355.21;1732391;81;21023;-72
2021/12/11 11:30:15;;;;;;;173.75;75.40;;;;;;;0.33;84.93;100356.69;1779520;80;21110;-72
2021/12/11 11:32:41;;;;;;;121.77;59.93;;;;;;;0.40;84.92;100360.55;1740145;80;21277;-72
2021/12/11 11:35:11;;;;;;;116.62;58.30;;;;;;;0.46;84.89;100365.37;1748646;81;21084;-72
2021/12/11 11:37:37;;;;;;;122.05;60.80;;;;;;;0.42;84.86;100366.52;1758683;81;21031;-72